Time;durP1;ratioP1;P1;durP2;ratioP2;P2;SDS_P1;SDS_P2;PMS_P1;PMS_P2;Temp;Humidity;BMP_temperature;BMP_pressure;BME280_temperature;BME280_humidity;BME280_pressure;Samples;Min_cycle;Max_cycle;Signal;HPM_P1;HPM_P2
2023/04/28 00:01:22;;;;;;;166.20;20.90;;;;;;;;;;137653;1271;22142;-81
2023/04/28 00:04:23;;;;;;;25.40;12.60;;;;;;;;;;137164;1271;22536;-80
2023/04/28 00:07:24;;;;;;;22.50;12.70;;;;;;;;;;137147;1271;22536;-80
2023/04/28 00:10:25;;;;;;;25.30;12.90;;;;;;;;;;137761;1271;22593;-80
2023/04/28 00:13:26;;;;;;;22.30;13.20;;;;;;;;;;137028;1271;22768;-80
2023/04/28 00:16:27;;;;;;;25.50;12.50;;;;;;;;;;137258;1256;22556;-80
2023/04/28 00:19:29;;;;;;;24.30;12.70;;;;;;;;;;137859;1260;22281;-80
2023/04/28 00:22:30;;;;;;;27.90;13.60;;;;;;;;;;137182;1271;22607;-80
2023/04/28 00:25:31;;;;;;;23.70;11.90;;;;;;;;;;137178;1271;22198;-80
2023/04/28 00:28:32;;;;;;;21.70;12.00;;;;;;;;;;137381;1271;223189;-80
2023/04/28 00:31:34;;;;;;;22.90;11.70;;;;;;;;;;137326;1271;22227;-80
2023/04/28 00:34:36;;;;;;;20.40;12.50;;;;;;;;;;137135;1271;22726;-80
2023/04/28 00:37:37;;;;;;;24.60;13.00;;;;;;;;;;137289;1271;22635;-80
2023/04/28 00:40:38;;;;;;;27.60;12.70;;;;;;;;;;137630;1271;22483;-80
2023/04/28 00:43:39;;;;;;;22.90;11.70;;;;;;;;;;137488;1271;22453;-78
2023/04/28 00:46:40;;;;;;;29.70;11.40;;;;;;;;;;137231;1271;22563;-79
2023/04/28 00:49:41;;;;;;;23.00;12.00;;;;;;;;;;137840;1271;22378;-80
2023/04/28 00:52:42;;;;;;;22.20;12.10;;;;;;;;;;137122;1271;22157;-79
2023/04/28 00:55:43;;;;;;;19.10;11.60;;;;;;;;;;137139;1271;22247;-79
2023/04/28 00:58:44;;;;;;;25.60;12.70;;;;;;;;;;137653;1271;22534;-81
2023/04/28 01:01:45;;;;;;;27.40;13.20;;;;;;;;;;137329;1271;22541;-80
2023/04/28 01:04:46;;;;;;;30.50;12.60;;;;;;;;;;137133;1271;22181;-81
2023/04/28 01:07:47;;;;;;;21.70;12.20;;;;;;;;;;137541;1271;22533;-81
2023/04/28 01:10:48;;;;;;;21.80;11.60;;;;;;;;;;137508;1271;22540;-80
2023/04/28 01:13:51;;;;;;;20.40;12.00;;;;;;;;;;137083;1271;22551;-80
2023/04/28 01:16:52;;;;;;;151.60;18.50;;;;;;;;;;137222;1271;24236;-82
2023/04/28 01:19:53;;;;;;;33.80;12.10;;;;;;;;;;137825;1271;22409;-82
2023/04/28 01:22:54;;;;;;;19.70;11.60;;;;;;;;;;137187;1271;22903;-81
2023/04/28 01:25:57;;;;;;;23.60;12.70;;;;;;;;;;137264;1271;22271;-83
2023/04/28 01:28:58;;;;;;;21.30;12.20;;;;;;;;;;137833;1271;22155;-80
2023/04/28 01:32:00;;;;;;;19.80;11.80;;;;;;;;;;137130;1271;22541;-81
2023/04/28 01:35:01;;;;;;;21.60;12.40;;;;;;;;;;137138;1271;22717;-81
2023/04/28 01:38:02;;;;;;;18.70;11.70;;;;;;;;;;137722;1271;22551;-82
2023/04/28 01:41:03;;;;;;;19.80;12.00;;;;;;;;;;137389;1271;22469;-80
2023/04/28 01:44:06;;;;;;;19.60;12.00;;;;;;;;;;137177;1271;22757;-80
2023/04/28 01:47:07;;;;;;;21.50;12.50;;;;;;;;;;137393;1271;22525;-80
2023/04/28 01:50:08;;;;;;;20.10;12.70;;;;;;;;;;137526;1271;22655;-80
2023/04/28 01:53:09;;;;;;;19.20;11.50;;;;;;;;;;137225;1271;22206;-81
2023/04/28 01:56:10;;;;;;;85.70;17.00;;;;;;;;;;137184;1271;22557;-82
2023/04/28 01:59:11;;;;;;;21.00;12.80;;;;;;;;;;137750;1271;22678;-80
2023/04/28 02:02:12;;;;;;;30.30;13.80;;;;;;;;;;137105;1271;22191;-79
2023/04/28 02:05:13;;;;;;;22.90;12.50;;;;;;;;;;137049;1271;22565;-82
2023/04/28 02:08:15;;;;;;;23.00;13.00;;;;;;;;;;137860;1271;22741;-79
2023/04/28 02:11:16;;;;;;;25.40;13.00;;;;;;;;;;137221;1268;22265;-80
2023/04/28 02:14:17;;;;;;;39.30;14.40;;;;;;;;;;137148;1271;22428;-81
2023/04/28 02:17:18;;;;;;;21.10;11.70;;;;;;;;;;137575;1271;25397;-81
2023/04/28 02:20:19;;;;;;;20.90;11.70;;;;;;;;;;137405;1271;22370;-80
2023/04/28 02:23:20;;;;;;;92.20;17.10;;;;;;;;;;137171;1271;22613;-80
2023/04/28 02:26:21;;;;;;;21.40;12.00;;;;;;;;;;137455;1271;22560;-82
2023/04/28 02:29:23;;;;;;;21.90;12.00;;;;;;;;;;137524;1271;22245;-80
2023/04/28 02:32:24;;;;;;;19.20;12.70;;;;;;;;;;137149;1271;22186;-81
2023/04/28 02:35:25;;;;;;;22.70;13.10;;;;;;;;;;137248;1271;22528;-81
2023/04/28 02:38:26;;;;;;;538.80;46.90;;;;;;;;;;137828;1267;22447;-81
2023/04/28 02:41:29;;;;;;;148.00;20.70;;;;;;;;;;137248;1271;22197;-81
2023/04/28 02:44:31;;;;;;;26.60;13.00;;;;;;;;;;137188;1271;22214;-81
2023/04/28 02:47:32;;;;;;;26.30;12.50;;;;;;;;;;137646;1271;22527;-81
2023/04/28 02:50:33;;;;;;;25.40;12.70;;;;;;;;;;137328;1271;22240;-79
2023/04/28 02:53:34;;;;;;;18.60;12.00;;;;;;;;;;137185;1271;22404;-80
2023/04/28 02:56:35;;;;;;;19.20;11.80;;;;;;;;;;137556;1269;22568;-78
2023/04/28 02:59:36;;;;;;;25.00;13.20;;;;;;;;;;137467;1271;22108;-78
2023/04/28 03:02:38;;;;;;;22.90;13.60;;;;;;;;;;137122;1271;22532;-78
2023/04/28 03:05:39;;;;;;;22.00;13.60;;;;;;;;;;137236;1271;25249;-78
2023/04/28 03:08:40;;;;;;;33.20;14.40;;;;;;;;;;137808;1271;22168;-77
2023/04/28 03:11:41;;;;;;;255.70;24.70;;;;;;;;;;137109;1271;22196;-80
2023/04/28 03:14:42;;;;;;;31.60;14.20;;;;;;;;;;137063;1271;22585;-82
2023/04/28 03:17:43;;;;;;;23.80;13.50;;;;;;;;;;137778;1271;22192;-80
2023/04/28 03:20:44;;;;;;;42.30;14.30;;;;;;;;;;136977;1271;22180;-80
2023/04/28 03:23:45;;;;;;;122.90;20.40;;;;;;;;;;137248;1271;22549;-80
2023/04/28 03:26:46;;;;;;;46.50;15.50;;;;;;;;;;137656;1271;22530;-82
2023/04/28 03:29:48;;;;;;;27.10;13.80;;;;;;;;;;137222;1271;22127;-81
2023/04/28 03:32:49;;;;;;;31.70;13.70;;;;;;;;;;137182;1271;22520;-80
2023/04/28 03:35:50;;;;;;;81.30;17.30;;;;;;;;;;137581;1271;22550;-80
2023/04/28 03:38:51;;;;;;;40.50;14.60;;;;;;;;;;137499;1271;23003;-81
2023/04/28 03:41:52;;;;;;;23.10;13.40;;;;;;;;;;137209;1271;22393;-81
2023/04/28 03:44:53;;;;;;;44.30;14.70;;;;;;;;;;137434;1271;22537;-82
2023/04/28 03:47:54;;;;;;;24.40;14.60;;;;;;;;;;137750;1271;22226;-80
2023/04/28 03:50:55;;;;;;;30.30;15.40;;;;;;;;;;137022;1271;22401;-80
2023/04/28 03:53:56;;;;;;;185.80;25.50;;;;;;;;;;137329;1266;22614;-80
2023/04/28 03:56:58;;;;;;;29.30;15.40;;;;;;;;;;137866;1271;22325;-80
2023/04/28 03:59:59;;;;;;;40.40;16.10;;;;;;;;;;137367;1266;22574;-79
2023/04/28 04:03:00;;;;;;;35.00;14.40;;;;;;;;;;136485;1271;22478;-80
2023/04/28 04:06:01;;;;;;;33.10;14.60;;;;;;;;;;137105;1271;22456;-79
2023/04/28 04:09:02;;;;;;;25.60;14.20;;;;;;;;;;137795;1271;22226;-80
2023/04/28 04:12:04;;;;;;;25.10;14.80;;;;;;;;;;137789;1271;22177;-80
2023/04/28 04:15:05;;;;;;;23.60;14.30;;;;;;;;;;137777;1271;22151;-80
2023/04/28 04:18:06;;;;;;;24.60;14.70;;;;;;;;;;137802;1271;22172;-79
2023/04/28 04:21:07;;;;;;;69.90;16.90;;;;;;;;;;137801;1271;22644;-81
2023/04/28 04:24:08;;;;;;;33.80;15.90;;;;;;;;;;137736;1271;22697;-80
2023/04/28 04:27:09;;;;;;;24.70;14.60;;;;;;;;;;137762;1271;22517;-79
2023/04/28 04:30:10;;;;;;;23.20;14.90;;;;;;;;;;137751;1271;22254;-80
2023/04/28 04:33:11;;;;;;;84.60;19.00;;;;;;;;;;137740;1271;22202;-79
2023/04/28 04:36:12;;;;;;;23.20;14.20;;;;;;;;;;137724;1271;22186;-80
2023/04/28 04:39:13;;;;;;;25.10;15.10;;;;;;;;;;137746;1271;22352;-80
2023/04/28 04:42:14;;;;;;;28.10;15.40;;;;;;;;;;137755;1271;22255;-79
2023/04/28 04:45:16;;;;;;;102.40;18.30;;;;;;;;;;137757;1271;22321;-80
2023/04/28 04:48:17;;;;;;;29.80;17.10;;;;;;;;;;137751;1271;22244;-80
2023/04/28 04:51:18;;;;;;;36.30;17.60;;;;;;;;;;137408;1271;22172;-81
2023/04/28 04:54:19;;;;;;;157.80;22.70;;;;;;;;;;137798;1271;22387;-81
2023/04/28 04:57:20;;;;;;;705.70;57.30;;;;;;;;;;137775;1271;22243;-80
2023/04/28 05:00:21;;;;;;;238.50;26.00;;;;;;;;;;137803;1271;22300;-80
2023/04/28 05:03:22;;;;;;;131.60;20.60;;;;;;;;;;137808;1271;22930;-80
2023/04/28 05:06:23;;;;;;;69.00;17.10;;;;;;;;;;137819;1267;22242;-83
2023/04/28 05:09:25;;;;;;;73.40;18.20;;;;;;;;;;137797;1271;22195;-80
2023/04/28 05:12:26;;;;;;;43.20;15.60;;;;;;;;;;137741;1271;22250;-80
2023/04/28 05:15:27;;;;;;;38.60;14.70;;;;;;;;;;137770;1271;22344;-82
2023/04/28 05:18:28;;;;;;;34.30;14.10;;;;;;;;;;137756;1271;22172;-80
2023/04/28 05:21:29;;;;;;;82.60;19.40;;;;;;;;;;137771;1271;22523;-81
2023/04/28 05:24:31;;;;;;;624.90;54.20;;;;;;;;;;137648;1271;22294;-82
2023/04/28 05:27:32;;;;;;;31.10;13.20;;;;;;;;;;137789;1271;22187;-82
2023/04/28 05:30:33;;;;;;;34.00;14.90;;;;;;;;;;137756;1271;22578;-82
2023/04/28 05:33:34;;;;;;;28.70;14.20;;;;;;;;;;137736;1271;22630;-81
2023/04/28 05:36:35;;;;;;;47.20;14.80;;;;;;;;;;137400;1271;22386;-82
2023/04/28 05:39:36;;;;;;;30.70;13.80;;;;;;;;;;137139;1271;22584;-83
2023/04/28 05:42:37;;;;;;;38.60;13.80;;;;;;;;;;137290;1271;22275;-81
2023/04/28 05:45:38;;;;;;;118.10;19.30;;;;;;;;;;137527;1271;22471;-81
2023/04/28 05:48:40;;;;;;;63.20;14.00;;;;;;;;;;136773;1271;22567;-80
2023/04/28 05:51:41;;;;;;;21.00;13.20;;;;;;;;;;137341;1271;22209;-81
2023/04/28 05:54:42;;;;;;;40.90;14.60;;;;;;;;;;137744;1271;22728;-82
2023/04/28 05:57:43;;;;;;;123.70;16.90;;;;;;;;;;137794;1271;22147;-83
2023/04/28 06:00:44;;;;;;;24.50;12.70;;;;;;;;;;137503;1271;23312;-82
2023/04/28 06:03:46;;;;;;;147.20;19.10;;;;;;;;;;137362;1271;22264;-82
2023/04/28 06:06:47;;;;;;;40.00;12.70;;;;;;;;;;137467;1271;22228;-82
2023/04/28 06:09:48;;;;;;;25.50;11.40;;;;;;;;;;137466;1271;22706;-80
2023/04/28 06:12:49;;;;;;;30.20;12.90;;;;;;;;;;137643;1271;22220;-83
2023/04/28 06:15:50;;;;;;;28.00;10.80;;;;;;;;;;137543;1271;22599;-83
2023/04/28 06:18:52;;;;;;;40.40;11.60;;;;;;;;;;137883;1271;22115;-83
2023/04/28 06:21:53;;;;;;;33.70;12.60;;;;;;;;;;137737;1271;22264;-83
2023/04/28 06:24:54;;;;;;;17.60;11.00;;;;;;;;;;137835;1266;22185;-83
2023/04/28 06:27:55;;;;;;;15.50;9.90;;;;;;;;;;137740;1271;22065;-82
2023/04/28 06:30:58;;;;;;;19.40;10.70;;;;;;;;;;137735;1271;22263;-82
2023/04/28 06:33:59;;;;;;;16.40;9.90;;;;;;;;;;137749;1268;22157;-82
2023/04/28 06:37:00;;;;;;;17.50;10.50;;;;;;;;;;137490;1271;22203;-82
2023/04/28 06:40:02;;;;;;;14.40;9.70;;;;;;;;;;137614;1256;22415;-82
2023/04/28 06:43:04;;;;;;;14.20;8.90;;;;;;;;;;137768;1272;22277;-82
2023/04/28 06:46:05;;;;;;;18.90;9.10;;;;;;;;;;137425;1271;22297;-82
2023/04/28 06:49:06;;;;;;;11.70;7.90;;;;;;;;;;137727;1271;22123;-83
2023/04/28 06:52:07;;;;;;;27.70;9.20;;;;;;;;;;137572;1271;22825;-83
2023/04/28 06:55:08;;;;;;;18.40;9.20;;;;;;;;;;137776;1271;22291;-84
2023/04/28 06:58:10;;;;;;;16.20;9.10;;;;;;;;;;137828;1269;22114;-84
2023/04/28 07:01:11;;;;;;;14.70;8.90;;;;;;;;;;137771;1271;22309;-82
2023/04/28 07:04:13;;;;;;;15.50;8.10;;;;;;;;;;137751;1271;22230;-83
2023/04/28 07:07:14;;;;;;;12.90;7.20;;;;;;;;;;137797;1271;22115;-82
2023/04/28 07:10:16;;;;;;;17.60;7.80;;;;;;;;;;137771;1271;22373;-82
2023/04/28 07:13:17;;;;;;;10.30;6.60;;;;;;;;;;137755;1271;22184;-83
2023/04/28 07:16:18;;;;;;;12.20;7.10;;;;;;;;;;137759;1271;22198;-82
2023/04/28 07:19:19;;;;;;;26.50;6.80;;;;;;;;;;137779;1271;22250;-83
2023/04/28 07:22:20;;;;;;;17.60;8.90;;;;;;;;;;137767;1271;22256;-86
2023/04/28 07:25:21;;;;;;;24.00;6.70;;;;;;;;;;137674;1268;22258;-81
2023/04/28 07:28:22;;;;;;;21.10;6.20;;;;;;;;;;137518;1271;22577;-82
2023/04/28 07:31:24;;;;;;;11.70;5.80;;;;;;;;;;137787;1271;23219;-83
2023/04/28 07:34:26;;;;;;;31.60;7.30;;;;;;;;;;137506;1268;22533;-82
2023/04/28 07:37:27;;;;;;;8.30;5.10;;;;;;;;;;137794;1271;22308;-82
2023/04/28 07:40:28;;;;;;;7.40;5.00;;;;;;;;;;137804;1272;22656;-83
2023/04/28 07:43:29;;;;;;;17.40;6.50;;;;;;;;;;137797;1271;22220;-82
2023/04/28 07:46:30;;;;;;;19.50;6.60;;;;;;;;;;137805;1271;22089;-81
2023/04/28 07:49:31;;;;;;;10.20;6.60;;;;;;;;;;137748;1271;22222;-83
2023/04/28 07:52:33;;;;;;;21.90;7.40;;;;;;;;;;137304;1266;22275;-83
2023/04/28 07:55:34;;;;;;;21.40;6.80;;;;;;;;;;137571;1271;22533;-82
2023/04/28 07:58:35;;;;;;;22.80;7.30;;;;;;;;;;137127;1253;22306;-83
2023/04/28 08:01:36;;;;;;;15.60;8.30;;;;;;;;;;137735;1271;22326;-83
2023/04/28 08:04:37;;;;;;;70.20;9.50;;;;;;;;;;137780;1269;22104;-83
2023/04/28 08:07:38;;;;;;;66.30;12.10;;;;;;;;;;137634;1271;22254;-82
2023/04/28 08:10:41;;;;;;;52.90;9.80;;;;;;;;;;137744;1271;22311;-84
2023/04/28 08:13:42;;;;;;;18.10;8.00;;;;;;;;;;137782;1271;22696;-83
2023/04/28 08:16:44;;;;;;;26.90;7.90;;;;;;;;;;137816;1271;22198;-83
2023/04/28 08:19:46;;;;;;;12.90;7.60;;;;;;;;;;137757;1271;22196;-82
2023/04/28 08:22:48;;;;;;;31.90;7.60;;;;;;;;;;137771;1271;22162;-82
2023/04/28 08:25:50;;;;;;;14.50;7.10;;;;;;;;;;137749;1269;23103;-83
2023/04/28 08:28:51;;;;;;;30.50;8.80;;;;;;;;;;137784;1266;22172;-83
2023/04/28 08:31:55;;;;;;;;;;;;;;;;;;137787;1271;22322;-82
2023/04/28 08:34:56;;;;;;;39.00;9.10;;;;;;;;;;137771;1271;22302;-82
2023/04/28 08:37:57;;;;;;;22.10;8.60;;;;;;;;;;137733;1271;22712;-82
2023/04/28 08:40:58;;;;;;;21.00;8.00;;;;;;;;;;137752;1271;22308;-81
2023/04/28 08:43:59;;;;;;;80.00;11.90;;;;;;;;;;137768;1271;22084;-82
2023/04/28 08:47:00;;;;;;;16.20;7.80;;;;;;;;;;137307;1271;22620;-83
2023/04/28 08:50:01;;;;;;;88.00;11.70;;;;;;;;;;137396;1271;22534;-84
2023/04/28 08:53:03;;;;;;;32.30;8.80;;;;;;;;;;137354;1271;22232;-82
2023/04/28 08:56:06;;;;;;;21.90;8.40;;;;;;;;;;137072;1271;22532;-81
2023/04/28 08:59:09;;;;;;;317.10;28.40;;;;;;;;;;137440;1271;22498;-80
2023/04/28 09:02:10;;;;;;;42.40;8.00;;;;;;;;;;137375;1271;22221;-82
2023/04/28 09:05:11;;;;;;;41.40;8.80;;;;;;;;;;137526;1272;22233;-81
2023/04/28 09:08:12;;;;;;;20.20;8.40;;;;;;;;;;137679;1271;25119;-82
2023/04/28 09:11:13;;;;;;;17.80;7.00;;;;;;;;;;137570;1271;22452;-81
2023/04/28 09:14:14;;;;;;;434.80;32.00;;;;;;;;;;137535;1271;22429;-83
2023/04/28 09:17:15;;;;;;;81.40;11.00;;;;;;;;;;137818;1271;22220;-81
2023/04/28 09:20:16;;;;;;;51.20;7.90;;;;;;;;;;137491;1271;22565;-81
2023/04/28 09:23:17;;;;;;;26.60;7.20;;;;;;;;;;137205;1271;22413;-82
2023/04/28 09:26:18;;;;;;;44.30;9.00;;;;;;;;;;137446;1271;22556;-83
2023/04/28 09:29:19;;;;;;;21.40;7.00;;;;;;;;;;136779;1271;22638;-79
2023/04/28 09:32:21;;;;;;;16.50;6.20;;;;;;;;;;137413;1271;22235;-83
2023/04/28 09:35:22;;;;;;;35.70;8.20;;;;;;;;;;137671;1271;22554;-82
2023/04/28 09:38:23;;;;;;;16.00;6.60;;;;;;;;;;137763;1271;22151;-81
2023/04/28 09:41:24;;;;;;;23.60;6.40;;;;;;;;;;137724;1271;22726;-81
2023/04/28 09:44:25;;;;;;;17.50;6.30;;;;;;;;;;136506;1271;22598;-82
2023/04/28 09:47:26;;;;;;;26.40;7.30;;;;;;;;;;137785;1271;22786;-81
2023/04/28 09:50:27;;;;;;;17.90;7.70;;;;;;;;;;137765;1271;22201;-81
2023/04/28 09:53:28;;;;;;;66.90;9.40;;;;;;;;;;137782;1271;22312;-82
2023/04/28 09:56:29;;;;;;;37.90;9.90;;;;;;;;;;137724;1271;23118;-83
2023/04/28 09:59:35;;;;;;;17.10;8.00;;;;;;;;;;137485;1271;22298;-84
2023/04/28 10:02:36;;;;;;;17.50;7.50;;;;;;;;;;137489;1271;22383;-81
2023/04/28 10:05:40;;;;;;;45.10;9.70;;;;;;;;;;137640;1271;22529;-80
2023/04/28 10:08:47;;;;;;;48.50;9.80;;;;;;;;;;137391;1271;22462;-83
2023/04/28 10:11:48;;;;;;;1012.50;82.30;;;;;;;;;;137105;1271;22296;-81
2023/04/28 10:14:49;;;;;;;32.80;8.60;;;;;;;;;;137362;1271;22554;-81
2023/04/28 10:17:50;;;;;;;260.10;19.10;;;;;;;;;;137578;1271;22215;-81
2023/04/28 10:20:51;;;;;;;24.80;8.10;;;;;;;;;;137350;1270;22482;-80
2023/04/28 10:23:52;;;;;;;40.90;8.80;;;;;;;;;;137133;1271;22564;-80
2023/04/28 10:26:54;;;;;;;17.70;8.10;;;;;;;;;;137202;1271;22559;-81
2023/04/28 10:29:56;;;;;;;32.40;8.40;;;;;;;;;;137311;1271;25237;-81
2023/04/28 10:32:57;;;;;;;27.90;8.00;;;;;;;;;;137759;1271;22277;-81
2023/04/28 10:35:58;;;;;;;38.70;8.80;;;;;;;;;;137819;1271;22262;-82
2023/04/28 10:39:02;;;;;;;27.80;7.10;;;;;;;;;;137794;1270;23099;-82
2023/04/28 10:42:03;;;;;;;39.00;7.90;;;;;;;;;;137800;1271;22137;-82
2023/04/28 10:45:04;;;;;;;25.70;8.20;;;;;;;;;;136952;1272;22521;-80
2023/04/28 10:48:05;;;;;;;34.10;8.80;;;;;;;;;;137384;1271;22413;-81
2023/04/28 10:51:08;;;;;;;14.50;7.60;;;;;;;;;;137333;1271;22198;-81
2023/04/28 10:54:09;;;;;;;12.50;6.50;;;;;;;;;;137734;1271;22091;-80
2023/04/28 10:57:10;;;;;;;14.00;6.30;;;;;;;;;;137488;1271;22558;-80
2023/04/28 11:00:12;;;;;;;44.20;8.00;;;;;;;;;;137265;1272;22740;-80
2023/04/28 11:03:14;;;;;;;18.90;6.70;;;;;;;;;;137157;1271;22547;-81
2023/04/28 11:06:15;;;;;;;93.50;12.10;;;;;;;;;;137317;1271;22621;-80
2023/04/28 11:09:16;;;;;;;145.50;17.40;;;;;;;;;;137343;1272;22548;-80
2023/04/28 11:12:17;;;;;;;79.30;9.80;;;;;;;;;;137872;1272;22157;-81
2023/04/28 11:15:19;;;;;;;62.90;9.00;;;;;;;;;;137874;1271;22307;-81
2023/04/28 11:18:20;;;;;;;20.10;5.80;;;;;;;;;;137784;1271;22161;-80
2023/04/28 11:21:21;;;;;;;26.80;7.10;;;;;;;;;;137772;1272;22240;-80
2023/04/28 11:24:24;;;;;;;49.20;7.60;;;;;;;;;;137788;1271;22185;-81
2023/04/28 11:27:25;;;;;;;31.00;7.30;;;;;;;;;;137789;1271;22280;-80
2023/04/28 11:30:27;;;;;;;33.70;6.70;;;;;;;;;;137765;1271;22091;-80
2023/04/28 11:33:29;;;;;;;15.00;5.50;;;;;;;;;;137708;1272;22328;-81
2023/04/28 11:36:31;;;;;;;19.50;5.90;;;;;;;;;;137783;1271;22592;-80
2023/04/28 11:39:32;;;;;;;106.60;11.50;;;;;;;;;;137807;1271;22254;-80
2023/04/28 11:42:33;;;;;;;11.60;5.40;;;;;;;;;;137489;1271;22560;-80
2023/04/28 11:45:35;;;;;;;14.20;5.30;;;;;;;;;;136852;1248;22584;-80
2023/04/28 11:48:36;;;;;;;25.10;6.20;;;;;;;;;;137455;1272;22258;-81
2023/04/28 11:51:37;;;;;;;26.30;6.90;;;;;;;;;;137905;1271;22293;-82
2023/04/28 11:54:41;;;;;;;19.80;5.60;;;;;;;;;;137859;1272;22384;-79
2023/04/28 11:57:42;;;;;;;19.40;5.00;;;;;;;;;;137868;1271;22215;-82
2023/04/28 12:00:43;;;;;;;19.40;5.90;;;;;;;;;;137775;1271;22252;-84
2023/04/28 12:03:44;;;;;;;19.10;5.20;;;;;;;;;;137748;1271;22093;-81
2023/04/28 12:06:46;;;;;;;20.80;5.20;;;;;;;;;;137783;1271;22236;-82
2023/04/28 12:09:47;;;;;;;9.00;5.10;;;;;;;;;;137418;1271;22192;-81
2023/04/28 12:12:48;;;;;;;17.90;5.10;;;;;;;;;;137818;1271;22097;-80
2023/04/28 12:15:49;;;;;;;15.30;4.40;;;;;;;;;;137780;1271;22264;-80
2023/04/28 12:18:50;;;;;;;14.50;5.20;;;;;;;;;;137705;1272;22180;-80
2023/04/28 12:21:51;;;;;;;10.30;5.70;;;;;;;;;;137764;1271;22271;-79
2023/04/28 12:24:53;;;;;;;29.10;6.80;;;;;;;;;;137708;1271;22338;-79
2023/04/28 12:27:54;;;;;;;44.10;6.50;;;;;;;;;;137710;1271;22205;-80
2023/04/28 12:30:55;;;;;;;22.50;5.80;;;;;;;;;;137621;1264;215796;-79
2023/04/28 12:33:56;;;;;;;24.00;6.40;;;;;;;;;;137731;1271;22205;-79
2023/04/28 12:36:57;;;;;;;33.20;6.30;;;;;;;;;;137169;1269;22660;-80
2023/04/28 12:39:58;;;;;;;17.00;5.50;;;;;;;;;;137800;1271;22235;-80
2023/04/28 12:42:59;;;;;;;16.90;5.30;;;;;;;;;;137708;1271;22225;-81
2023/04/28 12:46:02;;;;;;;16.50;4.90;;;;;;;;;;137832;1272;22312;-79
2023/04/28 12:49:04;;;;;;;10.70;4.50;;;;;;;;;;137870;1271;22774;-80
2023/04/28 12:52:06;;;;;;;11.50;5.00;;;;;;;;;;137810;1272;22356;-80
2023/04/28 12:55:07;;;;;;;8.40;4.90;;;;;;;;;;137743;1271;22246;-80
2023/04/28 12:58:08;;;;;;;7.70;4.20;;;;;;;;;;137777;1272;22238;-80
2023/04/28 13:01:09;;;;;;;6.80;5.10;;;;;;;;;;137784;1257;22515;-80
2023/04/28 13:04:11;;;;;;;10.20;4.70;;;;;;;;;;137738;1271;22352;-80
2023/04/28 13:07:12;;;;;;;82.50;8.20;;;;;;;;;;137753;1271;22642;-79
2023/04/28 13:10:13;;;;;;;67.30;9.00;;;;;;;;;;137739;1271;22281;-80
2023/04/28 13:13:14;;;;;;;7.90;5.10;;;;;;;;;;137816;1271;22689;-79
2023/04/28 13:16:15;;;;;;;10.30;4.80;;;;;;;;;;137798;1264;22098;-80
2023/04/28 13:19:16;;;;;;;8.20;4.90;;;;;;;;;;137763;1271;22549;-79
2023/04/28 13:22:18;;;;;;;66.50;8.20;;;;;;;;;;137757;1271;22309;-80
2023/04/28 13:25:19;;;;;;;6.60;4.20;;;;;;;;;;137710;1271;22393;-80
2023/04/28 13:28:21;;;;;;;21.00;13.40;;;;;;;;;;137709;1271;22637;-80
2023/04/28 13:31:22;;;;;;;28.30;10.20;;;;;;;;;;137735;1264;22203;-79
2023/04/28 13:34:23;;;;;;;9.70;4.80;;;;;;;;;;137769;1272;22338;-80
2023/04/28 13:37:24;;;;;;;5.90;4.20;;;;;;;;;;137814;1271;22728;-79
2023/04/28 13:40:25;;;;;;;25.40;5.90;;;;;;;;;;137782;1271;22198;-79
2023/04/28 13:43:26;;;;;;;8.80;4.60;;;;;;;;;;137775;1271;22276;-79
2023/04/28 13:46:27;;;;;;;31.20;5.80;;;;;;;;;;137170;1257;22234;-79
2023/04/28 13:49:28;;;;;;;33.20;5.70;;;;;;;;;;137785;1270;22123;-79
2023/04/28 13:52:30;;;;;;;13.20;4.80;;;;;;;;;;137752;1271;22234;-79
2023/04/28 13:55:31;;;;;;;27.20;5.40;;;;;;;;;;137741;1271;22735;-80
2023/04/28 13:58:32;;;;;;;460.90;35.10;;;;;;;;;;137537;1271;22534;-80
2023/04/28 14:01:33;;;;;;;53.10;7.80;;;;;;;;;;137615;1271;22246;-80
2023/04/28 14:04:34;;;;;;;20.00;5.50;;;;;;;;;;137140;1271;22190;-81
2023/04/28 14:07:35;;;;;;;1410.30;117.80;;;;;;;;;;137323;1271;22532;-79
2023/04/28 14:10:36;;;;;;;14.40;4.60;;;;;;;;;;137821;1271;22417;-80
2023/04/28 14:13:37;;;;;;;11.90;4.50;;;;;;;;;;137275;1271;22252;-80
2023/04/28 14:16:38;;;;;;;10.70;4.60;;;;;;;;;;137025;1271;22232;-80
2023/04/28 14:19:39;;;;;;;12.20;4.40;;;;;;;;;;137731;1271;22233;-80
2023/04/28 14:22:41;;;;;;;89.80;10.50;;;;;;;;;;137085;1271;22249;-81
2023/04/28 14:25:42;;;;;;;19.50;6.20;;;;;;;;;;137034;1271;22681;-79
2023/04/28 14:28:43;;;;;;;9.70;4.60;;;;;;;;;;137548;1271;22545;-80
2023/04/28 14:31:44;;;;;;;6.90;4.60;;;;;;;;;;137435;1271;22516;-80
2023/04/28 14:34:45;;;;;;;6.40;4.70;;;;;;;;;;137010;1271;22532;-79
2023/04/28 14:37:46;;;;;;;9.60;4.50;;;;;;;;;;137582;1271;22522;-80
2023/04/28 14:40:47;;;;;;;13.00;5.00;;;;;;;;;;137438;1271;22200;-79
2023/04/28 14:43:48;;;;;;;26.20;7.20;;;;;;;;;;137296;1271;22961;-78
2023/04/28 14:46:50;;;;;;;14.60;4.90;;;;;;;;;;137457;1271;24160;-80
2023/04/28 14:49:53;;;;;;;11.00;4.70;;;;;;;;;;137461;1271;22561;-80
2023/04/28 14:52:54;;;;;;;7.60;4.40;;;;;;;;;;137211;1271;22591;-80
2023/04/28 14:55:55;;;;;;;11.00;4.60;;;;;;;;;;137411;1271;22153;-80
2023/04/28 14:58:56;;;;;;;10.70;4.60;;;;;;;;;;137708;1271;22409;-79
2023/04/28 15:01:57;;;;;;;13.20;5.20;;;;;;;;;;137285;1271;22824;-80
2023/04/28 15:04:58;;;;;;;13.90;6.00;;;;;;;;;;137006;1266;22543;-80
2023/04/28 15:07:59;;;;;;;29.30;6.60;;;;;;;;;;137565;1271;22556;-80
2023/04/28 15:11:00;;;;;;;62.40;8.20;;;;;;;;;;137322;1271;22366;-79
2023/04/28 15:14:01;;;;;;;13.00;5.30;;;;;;;;;;137201;1271;22430;-80
2023/04/28 15:17:03;;;;;;;14.20;6.80;;;;;;;;;;137804;1271;22109;-80
2023/04/28 15:20:07;;;;;;;24.70;5.90;;;;;;;;;;137647;1271;22342;-80
2023/04/28 15:23:09;;;;;;;11.00;5.60;;;;;;;;;;137845;1271;22351;-79
2023/04/28 15:26:10;;;;;;;18.90;5.80;;;;;;;;;;137830;1271;22325;-79
2023/04/28 15:29:11;;;;;;;10.90;4.60;;;;;;;;;;137832;1271;22254;-79
2023/04/28 15:32:13;;;;;;;6.90;4.90;;;;;;;;;;137841;1271;22222;-80
2023/04/28 15:35:14;;;;;;;10.10;4.80;;;;;;;;;;137864;1271;22665;-80
2023/04/28 15:38:16;;;;;;;11.70;5.40;;;;;;;;;;137855;1271;22623;-79
2023/04/28 15:41:17;;;;;;;11.40;5.60;;;;;;;;;;137773;1271;22198;-80
2023/04/28 15:44:18;;;;;;;22.00;6.40;;;;;;;;;;137806;1271;22179;-79
2023/04/28 15:47:19;;;;;;;9.30;5.20;;;;;;;;;;137795;1271;22259;-80
2023/04/28 15:50:20;;;;;;;8.40;5.70;;;;;;;;;;137802;1271;22803;-80
2023/04/28 15:53:21;;;;;;;26.40;6.30;;;;;;;;;;137769;1271;22211;-80
2023/04/28 15:56:23;;;;;;;11.60;6.30;;;;;;;;;;137821;1263;22100;-80
2023/04/28 15:59:24;;;;;;;9.70;5.50;;;;;;;;;;137830;1271;22164;-79
2023/04/28 16:02:25;;;;;;;15.50;5.90;;;;;;;;;;137281;1271;22606;-79
2023/04/28 16:05:26;;;;;;;7.60;5.30;;;;;;;;;;137139;1271;25979;-79
2023/04/28 16:08:28;;;;;;;8.90;5.80;;;;;;;;;;137446;1271;22543;-80
2023/04/28 16:11:29;;;;;;;11.80;5.60;;;;;;;;;;137182;1271;22405;-81
2023/04/28 16:14:30;;;;;;;12.00;5.20;;;;;;;;;;137154;1271;22587;-80
2023/04/28 16:17:32;;;;;;;7.50;5.20;;;;;;;;;;137851;1271;22276;-79
2023/04/28 16:20:33;;;;;;;11.40;5.20;;;;;;;;;;137209;1271;22994;-80
2023/04/28 16:23:35;;;;;;;11.80;5.60;;;;;;;;;;137175;1271;22429;-79
2023/04/28 16:26:36;;;;;;;262.20;19.50;;;;;;;;;;137788;1271;22346;-80
2023/04/28 16:29:37;;;;;;;13.90;5.30;;;;;;;;;;137311;1271;22249;-79
2023/04/28 16:32:39;;;;;;;8.30;4.80;;;;;;;;;;137140;1271;22259;-80
2023/04/28 16:35:40;;;;;;;10.40;5.20;;;;;;;;;;137479;1271;22561;-79
2023/04/28 16:38:41;;;;;;;8.90;4.80;;;;;;;;;;137566;1271;22198;-79
2023/04/28 16:41:42;;;;;;;8.10;5.00;;;;;;;;;;137133;1271;22210;-80
2023/04/28 16:44:43;;;;;;;7.80;4.90;;;;;;;;;;137148;1271;22641;-80
2023/04/28 16:47:45;;;;;;;11.60;5.70;;;;;;;;;;137738;1271;22255;-80
2023/04/28 16:50:46;;;;;;;8.50;5.40;;;;;;;;;;137132;1271;22218;-79
2023/04/28 16:53:47;;;;;;;9.40;5.30;;;;;;;;;;137500;1271;23035;-79
2023/04/28 16:56:49;;;;;;;12.20;5.20;;;;;;;;;;137870;1271;22847;-79
2023/04/28 16:59:50;;;;;;;10.60;5.40;;;;;;;;;;137216;1271;22212;-79
2023/04/28 17:02:51;;;;;;;29.30;6.10;;;;;;;;;;137176;1271;22480;-80
2023/04/28 17:05:53;;;;;;;33.20;6.30;;;;;;;;;;137577;1271;23032;-82
2023/04/28 17:08:54;;;;;;;23.10;5.90;;;;;;;;;;136796;1271;25854;-83
2023/04/28 17:11:55;;;;;;;11.00;4.80;;;;;;;;;;136937;1271;22547;-81
2023/04/28 17:14:57;;;;;;;14.30;5.50;;;;;;;;;;137377;1271;22537;-83
2023/04/28 17:17:58;;;;;;;14.80;5.30;;;;;;;;;;137111;1271;22553;-81
2023/04/28 17:20:59;;;;;;;6.20;5.00;;;;;;;;;;137854;1271;22294;-79
2023/04/28 17:24:00;;;;;;;12.00;5.40;;;;;;;;;;137138;1271;22301;-80
2023/04/28 17:27:01;;;;;;;29.60;6.90;;;;;;;;;;137169;1271;22583;-80